Create Tblcommutelog Verified Points Advance Search
| # | Trip ID | Id Commuter | Trip Date | Trip Num | Current Lat | Current Lng | Delta Distance | Current Time | Activity | Activity Confidence | Current Speed | |
|---|---|---|---|---|---|---|---|---|---|---|---|---|
| 70901 | 251015_753795_16619971_1720 | 753795 | (not set) | (not set) | 39.034172209096 | -77.047178868945 | 9.4102 | 2025-10-15 18:06:02 | on_foot | 100 | -0.44703925898772 | |
| 70902 | 251015_781052_16648727_1713 | 781052 | (not set) | (not set) | 39.081643306461 | -77.142880155824 | 17.9205 | 2025-10-15 18:07:25 | in_vehicle | 100 | 9.2447718758661 | |
| 70903 | 251015_731669_16595792_1650 | 731669 | (not set) | (not set) | 38.77921635378 | -77.391158652534 | 26.3054 | 2025-10-15 18:09:02 | in_vehicle | 100 | 9.8885084088085 | |
| 70904 | 251015_644365_16487403_1703 | 644365 | (not set) | (not set) | 39.1608183 | -76.8496964 | 1.6977 | 2025-10-15 17:30:07 | on_bicycle | 100 | 3.2589161980205 | |
| 70905 | 251015_769309_16636345_1712 | 769309 | (not set) | (not set) | 38.97869133212 | -77.434465848621 | 26.3238 | 2025-10-15 18:10:20 | in_vehicle | 100 | 3.7238370273677 | |
| 70906 | 251015_760249_16626935_1811 | 760249 | (not set) | (not set) | 38.8934724 | -76.9819608 | 0 | 2025-10-15 18:11:58 | still | 100 | 0.25034198503313 | |
| 70907 | 251015_760249_16626935_1811 | 760249 | (not set) | (not set) | 38.8934517 | -76.980823 | 0.0626 | 2025-10-15 18:13:17 | walking | 100 | 0.53644711078527 | |
| 70908 | 251015_784414_16654419_1739 | 784414 | (not set) | (not set) | 38.804179286337 | -77.109753034152 | 10.0006 | 2025-10-15 18:14:37 | in_vehicle | 100 | 14.287374717248 | |
| 70909 | 251015_781457_16649141_1722 | 781457 | (not set) | (not set) | 38.84019740059 | -77.40387229885 | 22.6338 | 2025-10-15 18:15:53 | in_vehicle | 100 | 0 | |
| 70910 | 251015_776833_16644369_1806 | 776833 | (not set) | (not set) | 38.977832644424 | -76.938919750707 | 0.8874 | 2025-10-15 18:17:19 | unknown | 100 | 4.1619355011757 | |
| 70911 | 251015_760249_16626935_1811 | 760249 | (not set) | (not set) | 38.8944006 | -76.9772066 | 0.3131 | 2025-10-15 18:19:05 | walking | 100 | 0.65714771071195 | |
| 70912 | 251015_786962_16655379_1654 | 786962 | (not set) | (not set) | 38.636596366667 | -77.299498833333 | 29.7707 | 2025-10-15 18:20:53 | in_vehicle | 100 | 0 | |
| 70913 | 251015_780998_16648672_1745 | 780998 | (not set) | (not set) | 38.967192333759 | -77.141554759812 | 8.0742 | 2025-10-15 18:22:52 | in_vehicle | 100 | 9.3922948313321 | |
| 70914 | 251008_784637_16652610_1806 | 784637 | (not set) | (not set) | 38.873257051767 | -77.032076894834 | 4.5064 | 2025-10-08 18:54:34 | running | 100 | 1.6406340804849 | |
| 70915 | 251008_788494_16500126_1719 | 788494 | (not set) | (not set) | 38.878183754268 | -77.104649025722 | 7.0984 | 2025-10-08 18:55:06 | on_foot | 100 | 0.52303593301564 | |
| 70916 | 251008_784637_16652610_1806 | 784637 | (not set) | (not set) | 38.874717713289 | -77.033437614488 | 4.6311 | 2025-10-08 18:55:33 | running | 100 | 0.67055888848159 | |
| 70917 | 251008_731669_16595792_1648 | 731669 | (not set) | (not set) | 38.731863182869 | -77.544654961029 | 38.8031 | 2025-10-08 18:55:51 | in_vehicle | 100 | 6.1736121666205 | |
| 70918 | 251008_763950_16630810_1842 | 763950 | (not set) | (not set) | 38.97828737356 | -76.928115134022 | 0.9542 | 2025-10-08 18:56:12 | in_vehicle | 100 | -0.44703925898772 | |
| 70919 | 251008_784637_16652610_1806 | 784637 | (not set) | (not set) | 38.876013261455 | -77.034919674242 | 4.7513 | 2025-10-08 18:57:04 | running | 100 | 1.493111125019 | |
| 70920 | 251008_788403_16500126_1816 | 788403 | (not set) | (not set) | 39.141916671898 | -77.201416558532 | 21.7324 | 2025-10-08 18:57:37 | in_vehicle | 100 | 0.40233533308895 |